createdAt,value
2018-04-17T00:00:17.275Z,52
2018-04-17T00:01:06.516Z,52
2018-04-17T00:01:57.432Z,52
2018-04-17T00:02:46.942Z,52
2018-04-17T00:04:27.336Z,52
2018-04-17T00:05:17.673Z,52
2018-04-17T00:16:08.458Z,51.9
2018-04-17T00:16:58.583Z,51.9
2018-04-17T00:17:48.600Z,51.9
2018-04-17T00:18:38.672Z,51.9
2018-04-17T00:19:28.218Z,51.9
2018-04-17T00:20:18.538Z,51.9
2018-04-17T00:21:08.900Z,51.9
2018-04-17T00:21:58.683Z,51.9
2018-04-17T00:22:48.255Z,51.9
2018-04-17T00:23:38.770Z,51.9
2018-04-17T00:24:28.836Z,51.8
2018-04-17T00:25:18.625Z,51.9
2018-04-17T00:26:09.260Z,51.9
2018-04-17T00:26:59.093Z,51.9
2018-04-17T00:27:48.515Z,51.9
2018-04-17T00:28:38.875Z,51.8
2018-04-17T00:29:28.970Z,51.8
2018-04-17T00:30:19.045Z,51.8
2018-04-17T00:31:08.747Z,51.8
2018-04-17T00:31:59.163Z,51.8
2018-04-17T00:32:49.459Z,51.8
2018-04-17T00:33:39.632Z,51.8
2018-04-17T00:34:29.623Z,51.8
2018-04-17T00:35:19.964Z,51.8
2018-04-17T00:36:09.772Z,51.8
2018-04-17T00:36:59.794Z,51.8
2018-04-17T00:37:49.887Z,51.8
2018-04-17T00:38:39.926Z,51.8
2018-04-17T00:39:29.696Z,51.8
2018-04-17T00:40:20.069Z,51.8
2018-04-17T00:41:10.128Z,51.8
2018-04-17T00:42:00.464Z,51.8
2018-04-17T00:42:49.651Z,51.8
2018-04-17T00:43:40.556Z,51.8
2018-04-17T00:44:30.633Z,51.8
2018-04-17T00:45:20.406Z,51.8
2018-04-17T00:46:10.499Z,51.8
2018-04-17T00:47:00.521Z,51.8
2018-04-17T00:47:50.601Z,51.8
2018-04-17T00:48:40.388Z,51.7
2018-04-17T00:49:31.031Z,51.7
2018-04-17T00:50:20.204Z,51.7
2018-04-17T00:51:10.567Z,51.7
2018-04-17T00:52:00.939Z,51.7
2018-04-17T00:52:50.750Z,51.7
2018-04-17T00:53:41.356Z,51.7
2018-04-17T00:54:30.542Z,51.7
2018-04-17T00:55:21.197Z,51.7
2018-04-17T00:56:11.521Z,51.7
2018-04-17T00:57:01.027Z,51.7
2018-04-17T00:57:50.790Z,51.7
2018-04-17T00:58:41.147Z,51.6
2018-04-17T00:59:31.492Z,51.7
2018-04-17T01:00:21.855Z,51.6
2018-04-17T01:01:11.878Z,51.6
2018-04-17T01:02:01.098Z,51.6
2018-04-17T01:02:52.006Z,51.6
2018-04-17T01:03:41.795Z,51.6
2018-04-17T01:04:31.289Z,51.6
2018-04-17T01:05:22.237Z,51.6
2018-04-17T01:06:12.269Z,51.6
2018-04-17T01:07:02.025Z,51.6
2018-04-17T01:07:51.810Z,51.6
2018-04-17T01:08:41.929Z,51.6
2018-04-17T01:09:31.956Z,51.6
2018-04-17T01:10:21.734Z,51.6
2018-04-17T01:11:12.665Z,51.6
2018-04-17T01:12:02.715Z,51.6
2018-04-17T01:12:52.741Z,51.6
2018-04-17T01:13:42.267Z,51.6
2018-04-17T01:14:32.958Z,51.6
2018-04-17T01:15:22.678Z,51.6
2018-04-17T01:16:12.502Z,51.6
2018-04-17T01:17:03.124Z,51.6
2018-04-17T01:17:52.301Z,51.6
2018-04-17T01:18:43.177Z,51.6
2018-04-17T01:19:32.999Z,51.6
2018-04-17T01:20:22.508Z,51.5
2018-04-17T01:21:12.856Z,51.5
2018-04-17T01:22:02.903Z,51.5
2018-04-17T01:22:53.236Z,51.5
2018-04-17T01:23:43.323Z,51.5
2018-04-17T01:24:33.671Z,51.6
2018-04-17T01:25:23.721Z,51.5
2018-04-17T01:26:13.556Z,51.5
2018-04-17T01:27:03.852Z,51.5
2018-04-17T01:27:53.906Z,51.5
2018-04-17T01:28:43.702Z,51.5
2018-04-17T01:29:33.743Z,51.5
2018-04-17T01:30:23.813Z,51.5
2018-04-17T01:31:13.306Z,51.5
2018-04-17T01:32:04.214Z,51.4
2018-04-17T01:32:53.995Z,51.4
2018-04-17T01:33:44.349Z,51.5
2018-04-17T01:34:34.380Z,51.4
2018-04-17T01:35:24.199Z,51.4
2018-04-17T01:36:14.528Z,51.4
2018-04-17T01:37:04.005Z,51.4
2018-04-17T01:37:53.563Z,51.4
2018-04-17T01:38:44.164Z,51.4
2018-04-17T01:39:34.524Z,51.4
2018-04-17T01:40:24.559Z,51.4
2018-04-17T01:41:14.606Z,51.4
2018-04-17T01:42:04.112Z,51.4
2018-04-17T01:42:55.054Z,51.4
2018-04-17T01:43:44.938Z,51.4
2018-04-17T01:44:35.135Z,51.4
2018-04-17T01:45:24.951Z,51.4
2018-04-17T01:46:14.713Z,51.4
2018-04-17T01:47:04.499Z,51.4
2018-04-17T01:47:55.142Z,51.4
2018-04-17T01:48:45.204Z,51.4
2018-04-17T01:49:34.982Z,51.4
2018-04-17T01:50:25.049Z,51.4
2018-04-17T01:51:15.079Z,51.4
2018-04-17T01:52:05.703Z,51.4
2018-04-17T01:52:55.517Z,51.3
2018-04-17T01:53:45.597Z,51.4
2018-04-17T01:54:35.637Z,51.3
2018-04-17T01:55:25.943Z,51.3
2018-04-17T01:56:16.535Z,51.3
2018-04-17T01:57:05.810Z,51.3
2018-04-17T01:57:55.898Z,51.3
2018-04-17T01:58:45.103Z,51.3
2018-04-17T01:59:35.159Z,51.3
2018-04-17T02:00:26.091Z,51.3
2018-04-17T02:01:16.135Z,51.3
2018-04-17T02:02:06.186Z,51.3
2018-04-17T02:02:56.537Z,51.3
2018-04-17T02:03:46.633Z,51.3
2018-04-17T02:04:36.401Z,51.3
2018-04-17T02:05:26.731Z,51.3
2018-04-17T02:06:16.255Z,51.3
2018-04-17T02:07:06.010Z,51.3
2018-04-17T02:07:56.363Z,51.3
2018-04-17T02:08:45.821Z,51.3
2018-04-17T02:09:36.759Z,51.3
2018-04-17T02:10:26.268Z,51.3
2018-04-17T02:11:17.141Z,51.3
2018-04-17T02:12:07.274Z,51.3
2018-04-17T02:12:57.325Z,51.3
2018-04-17T02:13:47.355Z,51.3
2018-04-17T02:14:36.874Z,51.3
2018-04-17T02:15:27.200Z,51.3
2018-04-17T02:16:17.263Z,51.3
2018-04-17T02:17:07.338Z,51.2
2018-04-17T02:17:57.680Z,51.2
2018-04-17T02:18:47.496Z,51.2
2018-04-17T02:19:37.507Z,51.2
2018-04-17T02:20:27.570Z,51.2
2018-04-17T02:21:17.646Z,51.2
2018-04-17T02:22:07.518Z,51.2
2018-04-17T02:22:57.769Z,51.2
2018-04-17T02:23:47.570Z,51.2
2018-04-17T02:24:38.154Z,51.2
2018-04-17T02:25:27.954Z,51.2
2018-04-17T02:26:18.017Z,51.2
2018-04-17T02:27:07.520Z,51.2
2018-04-17T02:27:58.419Z,51.3
2018-04-17T02:28:48.499Z,51.4
2018-04-17T02:29:38.252Z,51.5
2018-04-17T02:30:28.351Z,51.7
2018-04-17T02:31:18.140Z,51.9
2018-04-17T02:32:08.485Z,52
2018-04-17T02:32:58.251Z,52.2
2018-04-17T02:34:38.656Z,52.5
2018-04-17T02:35:28.994Z,52.7
2018-04-17T02:36:19.080Z,52.9
2018-04-17T02:37:08.588Z,53.1
2018-04-17T02:37:58.900Z,53.3
2018-04-17T02:38:49.235Z,53.3
2018-04-17T02:39:38.803Z,53.6
2018-04-17T02:40:28.829Z,53.7
2018-04-17T02:41:19.155Z,53.9
2018-04-17T02:42:08.936Z,54.1
2018-04-17T02:42:59.591Z,54.2
2018-04-17T02:43:49.625Z,54.4
2018-04-17T02:44:39.244Z,54.6
2018-04-17T02:45:29.504Z,54.7
2018-04-17T02:46:19.854Z,54.9
2018-04-17T02:47:09.577Z,55.1
2018-04-17T02:47:58.882Z,55.3
2018-04-17T02:48:49.436Z,55.6
2018-04-17T02:49:39.771Z,55.7
2018-04-17T02:50:29.864Z,55.9
2018-04-17T02:51:20.209Z,56.1
2018-04-17T02:52:09.965Z,56.3
2018-04-17T02:53:00.004Z,56.3
2018-04-17T02:53:50.090Z,56.6
2018-04-17T02:54:40.443Z,56.8
2018-04-17T02:55:30.495Z,56.8
2018-04-17T02:56:19.435Z,57.1
2018-04-17T02:57:10.609Z,57.3
2018-04-17T02:58:00.159Z,57.4
2018-04-17T02:58:50.185Z,57.5
2018-04-17T03:00:30.851Z,57.9
2018-04-17T03:01:20.646Z,58.1
2018-04-17T03:02:10.419Z,58.3
2018-04-17T03:03:50.287Z,58.7
2018-04-17T03:04:40.694Z,58.9
2018-04-17T03:05:30.991Z,59.1
2018-04-17T03:06:21.029Z,59.3
2018-04-17T03:07:11.382Z,59.4
2018-04-17T03:08:00.898Z,59.6
2018-04-17T03:08:50.932Z,59.8
2018-04-17T03:09:41.018Z,59.9
2018-04-17T03:10:31.638Z,60.1
2018-04-17T03:11:21.394Z,60.3
2018-04-17T03:12:10.927Z,60.4
2018-04-17T03:13:01.526Z,60.6
2018-04-17T03:13:51.860Z,60.9
2018-04-17T03:14:42.001Z,61.1
2018-04-17T03:15:31.728Z,61.3
2018-04-17T03:16:22.060Z,61.4
2018-04-17T03:17:12.124Z,61.6
2018-04-17T03:18:02.188Z,61.8
2018-04-17T03:18:51.947Z,61.9
2018-04-17T03:19:42.351Z,62.1
2018-04-17T03:20:32.102Z,62.1
2018-04-17T03:21:22.430Z,62.1
2018-04-17T03:22:12.207Z,62.2
2018-04-17T03:23:02.547Z,62.2
2018-04-17T03:23:52.431Z,62.2
2018-04-17T03:24:42.727Z,62.2
2018-04-17T03:25:32.631Z,62.2
2018-04-17T03:26:22.234Z,62.2
2018-04-17T03:27:12.388Z,62.2
2018-04-17T03:28:02.685Z,62.2
2018-04-17T03:28:52.437Z,62.2
2018-04-17T03:29:42.242Z,62.2
2018-04-17T03:30:32.557Z,62.2
2018-04-17T03:31:23.197Z,62.2
2018-04-17T03:32:12.493Z,62.2
2018-04-17T03:33:02.819Z,62.2
2018-04-17T03:33:52.341Z,62.2
2018-04-17T03:34:42.888Z,62.2
2018-04-17T03:35:33.498Z,62.2
2018-04-17T03:36:23.551Z,62.2
2018-04-17T03:37:13.378Z,62.2
2018-04-17T03:38:03.676Z,62.2
2018-04-17T03:38:53.197Z,62.2
2018-04-17T03:39:43.536Z,62.2
2018-04-17T03:40:33.609Z,62.2
2018-04-17T03:41:32.379Z,62.1
2018-04-17T03:42:21.958Z,62.1
2018-04-17T03:43:11.941Z,62.2
2018-04-17T03:44:02.062Z,62.1
2018-04-17T03:44:52.443Z,62.1
2018-04-17T03:45:57.340Z,62.1
2018-04-17T03:46:32.267Z,62.1
2018-04-17T03:47:22.306Z,62.1
2018-04-17T03:48:12.569Z,62.1
2018-04-17T03:49:02.077Z,62.1
2018-04-17T03:49:52.804Z,62.1
2018-04-17T03:50:42.297Z,62.1
2018-04-17T03:51:32.341Z,62.1
2018-04-17T03:52:22.894Z,62.1
2018-04-17T03:53:12.776Z,62.1
2018-04-17T03:54:02.325Z,62.1
2018-04-17T03:54:52.583Z,62.1
2018-04-17T03:55:42.373Z,62.1
2018-04-17T03:56:33.248Z,62.1
2018-04-17T03:57:23.320Z,62.1
2018-04-17T03:58:12.663Z,62.1
2018-04-17T03:59:17.327Z,62.1
2018-04-17T03:59:53.076Z,62.1
2018-04-17T04:00:43.075Z,62.1
2018-04-17T04:01:33.204Z,62.1
2018-04-17T04:02:22.658Z,62.1
2018-04-17T04:03:13.270Z,62.1
2018-04-17T04:04:02.812Z,62
2018-04-17T04:04:53.663Z,62.1
2018-04-17T04:05:43.487Z,62.1
2018-04-17T04:06:33.835Z,62
2018-04-17T04:07:23.075Z,62
2018-04-17T04:08:14.162Z,62
2018-04-17T04:09:03.424Z,62
2018-04-17T04:09:53.510Z,62
2018-04-17T04:10:43.820Z,62
2018-04-17T04:11:33.913Z,62
2018-04-17T04:12:24.443Z,62
2018-04-17T04:13:14.235Z,61.9
2018-04-17T04:14:18.968Z,61.9
2018-04-17T04:14:54.169Z,61.9
2018-04-17T04:15:44.195Z,61.9
2018-04-17T04:16:49.129Z,61.9
2018-04-17T04:17:23.975Z,61.9
2018-04-17T04:18:15.050Z,61.9
2018-04-17T04:19:04.687Z,61.9
2018-04-17T04:19:55.024Z,61.9
2018-04-17T04:20:44.540Z,61.9
2018-04-17T04:21:34.625Z,61.9
2018-04-17T04:22:39.876Z,61.9
2018-04-17T04:23:14.433Z,61.9
2018-04-17T04:24:05.757Z,61.9
2018-04-17T04:24:55.142Z,61.9
2018-04-17T04:25:45.855Z,61.9
2018-04-17T04:26:34.948Z,61.9
2018-04-17T04:27:25.386Z,61.9
2018-04-17T04:28:15.549Z,61.9
2018-04-17T04:29:05.073Z,61.9
2018-04-17T04:29:55.264Z,61.9
2018-04-17T04:30:45.275Z,61.9
2018-04-17T04:31:35.681Z,61.8
2018-04-17T04:32:25.453Z,61.9
2018-04-17T04:33:15.515Z,61.9
2018-04-17T04:34:05.551Z,61.9
2018-04-17T04:34:55.727Z,61.8
2018-04-17T04:35:45.953Z,61.8
2018-04-17T04:36:50.650Z,61.8
2018-04-17T04:37:26.054Z,61.8
2018-04-17T04:38:16.375Z,61.8
2018-04-17T04:39:06.217Z,61.8
2018-04-17T04:39:55.950Z,61.8
2018-04-17T04:40:46.980Z,61.8
2018-04-17T04:41:36.420Z,61.8
2018-04-17T04:42:26.170Z,61.8
2018-04-17T04:43:16.645Z,61.8
2018-04-17T04:44:21.508Z,61.8
2018-04-17T04:44:56.942Z,61.8
2018-04-17T04:45:47.016Z,61.8
2018-04-17T04:46:36.972Z,61.8
2018-04-17T04:47:27.028Z,61.8
2018-04-17T04:48:17.170Z,61.8
2018-04-17T04:49:06.665Z,61.8
2018-04-17T04:49:57.312Z,61.8
2018-04-17T04:50:47.360Z,61.8
2018-04-17T04:51:36.871Z,61.8
2018-04-17T04:52:27.441Z,61.7
2018-04-17T04:53:17.458Z,61.7
2018-04-17T04:54:07.592Z,61.7
2018-04-17T04:54:57.387Z,61.7
2018-04-17T04:55:47.345Z,61.7
2018-04-17T04:56:37.815Z,61.7
2018-04-17T04:57:27.794Z,61.7
2018-04-17T04:58:32.294Z,61.7
2018-04-17T04:59:07.421Z,61.6
2018-04-17T04:59:57.481Z,61.6
2018-04-17T05:00:47.740Z,61.6
2018-04-17T05:01:38.179Z,61.6
2018-04-17T05:02:28.235Z,61.6
2018-04-17T05:03:17.742Z,61.6
2018-04-17T05:04:07.787Z,61.6
2018-04-17T05:05:12.902Z,61.6
2018-04-17T05:05:48.217Z,61.6
2018-04-17T05:06:38.536Z,61.6
2018-04-17T05:07:28.567Z,61.6
2018-04-17T05:08:18.650Z,61.6
2018-04-17T05:09:09.119Z,61.6
2018-04-17T05:09:58.755Z,61.6
2018-04-17T05:10:48.598Z,61.6
2018-04-17T05:11:38.610Z,61.6
2018-04-17T05:12:28.636Z,61.6
2018-04-17T05:13:18.477Z,61.6
2018-04-17T05:14:08.799Z,61.6
2018-04-17T05:14:59.355Z,61.6
2018-04-17T05:15:48.956Z,61.6
2018-04-17T05:16:39.315Z,61.6
2018-04-17T05:17:44.053Z,61.5
2018-04-17T05:18:19.054Z,61.5
2018-04-17T05:19:09.681Z,61.5
2018-04-17T05:19:58.732Z,61.5
2018-04-17T05:20:49.642Z,61.5
2018-04-17T05:21:39.079Z,61.5
2018-04-17T05:22:29.697Z,61.5
2018-04-17T05:23:52.014Z,61.5
2018-04-17T05:24:09.554Z,61.5
2018-04-17T05:24:59.924Z,61.5
2018-04-17T05:25:49.692Z,61.4
2018-04-17T05:26:40.011Z,61.4
2018-04-17T05:27:29.246Z,61.4
2018-04-17T05:28:19.920Z,61.4
2018-04-17T05:29:09.909Z,61.4
2018-04-17T05:30:00.591Z,61.4
2018-04-17T05:30:50.356Z,61.4
2018-04-17T05:31:40.862Z,61.4
2018-04-17T05:32:30.189Z,61.4
2018-04-17T05:33:51.921Z,61.4
2018-04-17T05:34:10.305Z,61.4
2018-04-17T05:35:00.078Z,61.4
2018-04-17T05:35:50.451Z,61.4
2018-04-17T05:36:40.858Z,61.4
2018-04-17T05:37:30.523Z,61.4
2018-04-17T05:38:20.661Z,61.4
2018-04-17T05:39:10.421Z,61.4
2018-04-17T05:40:01.071Z,61.4
2018-04-17T05:40:51.119Z,61.4
2018-04-17T05:41:40.437Z,61.3
2018-04-17T05:42:30.995Z,61.4
2018-04-17T05:43:21.510Z,61.3
2018-04-17T05:44:11.108Z,61.3
2018-04-17T05:45:01.443Z,61.3
2018-04-17T05:45:51.186Z,61.3
2018-04-17T05:46:41.512Z,61.3
2018-04-17T05:47:31.590Z,61.3
2018-04-17T05:48:21.703Z,61.3
2018-04-17T05:49:26.124Z,61.3
2018-04-17T05:50:01.503Z,61.3
2018-04-17T05:50:51.577Z,61.3
2018-04-17T05:51:42.407Z,61.2
2018-04-17T05:52:31.685Z,61.2
2018-04-17T05:53:22.233Z,61.2
2018-04-17T05:54:12.132Z,61.2
2018-04-17T05:55:02.439Z,61.2
2018-04-17T05:56:07.758Z,61.2
2018-04-17T05:56:42.283Z,61.2
2018-04-17T05:57:32.090Z,61.1
2018-04-17T05:58:22.440Z,61.1
2018-04-17T05:59:26.856Z,61.1
2018-04-17T06:00:17.228Z,61.1
2018-04-17T06:00:52.626Z,61.1
2018-04-17T06:01:42.384Z,61.1
2018-04-17T06:02:32.715Z,61.1
2018-04-17T06:03:22.817Z,61.1
2018-04-17T06:04:12.600Z,61.1
2018-04-17T06:05:02.684Z,61.1
2018-04-17T06:05:53.052Z,61.1
2018-04-17T06:06:42.770Z,61.1
2018-04-17T06:07:33.106Z,61.1
2018-04-17T06:08:22.059Z,61.1
2018-04-17T06:09:12.974Z,61.1
2018-04-17T06:10:03.268Z,61.1
2018-04-17T06:10:53.392Z,61.1
2018-04-17T06:11:43.427Z,61.1
2018-04-17T06:12:33.272Z,61.1
2018-04-17T06:13:23.269Z,61
2018-04-17T06:14:13.603Z,61
2018-04-17T06:15:03.167Z,61
2018-04-17T06:15:53.771Z,61
2018-04-17T06:16:43.307Z,61
2018-04-17T06:17:33.008Z,61
2018-04-17T06:18:23.095Z,61
2018-04-17T06:19:13.709Z,61
2018-04-17T06:20:03.521Z,61
2018-04-17T06:20:53.714Z,61
2018-04-17T06:21:43.649Z,61
2018-04-17T06:22:33.997Z,61
2018-04-17T06:23:24.773Z,61
2018-04-17T06:24:14.096Z,60.9
2018-04-17T06:25:04.568Z,60.9
2018-04-17T06:25:53.637Z,60.9
2018-04-17T06:26:44.774Z,60.9
2018-04-17T06:27:34.323Z,60.9
2018-04-17T06:28:23.887Z,60.9
2018-04-17T06:29:14.297Z,60.9
2018-04-17T06:30:04.367Z,60.9
2018-04-17T06:30:54.619Z,60.9
2018-04-17T06:31:44.091Z,60.9
2018-04-17T06:32:34.218Z,60.9
2018-04-17T06:33:24.752Z,60.9
2018-04-17T06:34:14.289Z,60.9
2018-04-17T06:35:04.615Z,60.9
2018-04-17T06:35:55.207Z,60.9
2018-04-17T06:36:44.745Z,60.9
2018-04-17T06:37:35.150Z,60.9
2018-04-17T06:39:15.122Z,60.9
2018-04-17T06:40:05.048Z,60.9
2018-04-17T06:40:55.054Z,60.9
2018-04-17T06:41:45.247Z,60.8
2018-04-17T06:42:35.190Z,60.8
2018-04-17T06:43:25.532Z,60.8
2018-04-17T06:44:15.617Z,60.8
2018-04-17T06:45:05.127Z,60.8
2018-04-17T06:45:55.739Z,60.8
2018-04-17T06:46:45.799Z,60.8
2018-04-17T06:47:37.056Z,60.8
2018-04-17T06:48:40.526Z,60.8
2018-04-17T06:49:16.939Z,60.8
2018-04-17T06:50:06.075Z,60.8
2018-04-17T06:50:55.836Z,60.8
2018-04-17T06:51:46.496Z,60.8
2018-04-17T06:52:36.488Z,60.8
2018-04-17T06:53:26.319Z,60.8
2018-04-17T06:54:16.099Z,60.8
2018-04-17T06:55:06.457Z,60.8
2018-04-17T06:55:56.193Z,60.8
2018-04-17T06:56:46.841Z,60.8
2018-04-17T06:57:36.633Z,60.8
2018-04-17T06:58:25.627Z,60.8
2018-04-17T06:59:16.900Z,60.8
2018-04-17T07:00:07.083Z,60.7
2018-04-17T07:01:11.800Z,60.7
2018-04-17T07:02:01.878Z,60.7
2018-04-17T07:02:36.693Z,60.7
2018-04-17T07:03:27.167Z,60.7
2018-04-17T07:04:17.360Z,60.7
2018-04-17T07:05:07.391Z,60.7
2018-04-17T07:05:57.941Z,60.6
2018-04-17T07:06:47.310Z,60.6
2018-04-17T07:07:38.093Z,60.6
2018-04-17T07:08:26.765Z,60.6
2018-04-17T07:09:17.994Z,60.6
2018-04-17T07:10:07.542Z,60.6
2018-04-17T07:10:57.661Z,60.6
2018-04-17T07:11:47.265Z,60.6
2018-04-17T07:12:38.231Z,60.6
2018-04-17T07:13:27.215Z,60.6
2018-04-17T07:14:17.308Z,60.6
2018-04-17T07:15:08.151Z,60.6
2018-04-17T07:15:58.411Z,60.6
2018-04-17T07:16:48.311Z,60.6
2018-04-17T07:17:37.859Z,60.6
2018-04-17T07:18:28.194Z,60.6
2018-04-17T07:19:18.564Z,60.6
2018-04-17T07:20:08.336Z,60.6
2018-04-17T07:20:58.521Z,60.6
2018-04-17T07:22:02.814Z,60.6
2018-04-17T07:22:38.339Z,60.6
2018-04-17T07:23:28.081Z,60.5
2018-04-17T07:24:18.346Z,60.6
2018-04-17T07:25:08.785Z,60.5
2018-04-17T07:25:59.019Z,60.5
2018-04-17T07:26:47.978Z,60.5
2018-04-17T07:27:39.071Z,60.5
2018-04-17T07:28:29.212Z,60.5
2018-04-17T07:29:33.948Z,60.5
2018-04-17T07:30:09.024Z,60.5
2018-04-17T07:30:59.407Z,60.5
2018-04-17T07:31:48.918Z,60.4
2018-04-17T07:32:39.245Z,60.4
2018-04-17T07:33:29.407Z,60.4
2018-04-17T07:34:19.186Z,60.4
2018-04-17T07:35:09.740Z,60.4
2018-04-17T07:35:58.720Z,60.4
2018-04-17T07:36:49.590Z,60.4
2018-04-17T07:37:39.418Z,60.4
2018-04-17T07:38:29.798Z,60.4
2018-04-17T07:39:19.716Z,60.4
2018-04-17T07:40:10.101Z,60.4
2018-04-17T07:40:59.705Z,60.4
2018-04-17T07:41:50.250Z,60.4
2018-04-17T07:42:39.774Z,60.4
2018-04-17T07:43:45.284Z,60.4
2018-04-17T07:44:20.456Z,60.4
2018-04-17T07:45:24.275Z,60.4
2018-04-17T07:46:00.588Z,60.4
2018-04-17T07:46:50.859Z,60.4
2018-04-17T07:47:40.453Z,60.4
2018-04-17T07:48:30.774Z,60.4
2018-04-17T07:49:35.492Z,60.3
2018-04-17T07:50:10.625Z,60.3
2018-04-17T07:51:00.958Z,60.3
2018-04-17T07:51:50.214Z,60.3
2018-04-17T07:52:41.087Z,60.3
2018-04-17T07:53:31.134Z,60.3
2018-04-17T07:54:21.212Z,60.3
2018-04-17T07:55:11.281Z,60.3
2018-04-17T07:56:01.617Z,60.3
2018-04-17T07:56:50.851Z,60.3
2018-04-17T07:57:41.262Z,60.3
2018-04-17T07:58:31.568Z,60.3
2018-04-17T07:59:21.506Z,60.3
2018-04-17T08:00:11.092Z,60.3
2018-04-17T08:01:01.454Z,60.3
2018-04-17T08:01:51.478Z,60.3
2018-04-17T08:02:42.084Z,60.3
2018-04-17T08:03:31.346Z,60.3
2018-04-17T08:04:21.920Z,60.3
2018-04-17T08:05:11.761Z,60.3
2018-04-17T08:06:02.104Z,60.3
2018-04-17T08:07:06.540Z,60.3
2018-04-17T08:07:42.263Z,60.3
2018-04-17T08:08:32.040Z,60.2
2018-04-17T08:09:21.521Z,60.2
2018-04-17T08:10:11.649Z,60.2
2018-04-17T08:11:02.223Z,60.2
2018-04-17T08:11:52.701Z,60.2
2018-04-17T08:12:42.010Z,60.2
2018-04-17T08:13:31.902Z,60.1
2018-04-17T08:14:21.990Z,60.2
2018-04-17T08:15:11.129Z,60.2
2018-04-17T08:16:02.875Z,60.2
2018-04-17T08:16:52.687Z,60.1
2018-04-17T08:17:43.253Z,60.1
2018-04-17T08:18:32.550Z,60.1
2018-04-17T08:19:22.994Z,60.1
2018-04-17T08:20:12.582Z,60.1
2018-04-17T08:21:02.935Z,60.1
2018-04-17T08:21:52.565Z,60.1
2018-04-17T08:22:43.173Z,60.1
2018-04-17T08:24:23.259Z,60.1
2018-04-17T08:25:13.584Z,60.1
2018-04-17T08:26:03.617Z,60.1
2018-04-17T08:27:08.094Z,60.1
2018-04-17T08:27:43.758Z,60.1
2018-04-17T08:28:33.089Z,60.1
2018-04-17T08:29:23.651Z,60.1
2018-04-17T08:30:28.362Z,60.1
2018-04-17T08:31:03.209Z,60.1
2018-04-17T08:31:54.093Z,60.1
2018-04-17T08:32:44.171Z,60.1
2018-04-17T08:33:33.617Z,60.1
2018-04-17T08:34:24.272Z,60
2018-04-17T08:35:13.519Z,60.1
2018-04-17T08:36:03.666Z,60
2018-04-17T08:36:55.129Z,60
2018-04-17T08:37:44.295Z,60
2018-04-17T08:38:34.619Z,60
2018-04-17T08:39:24.777Z,60
2018-04-17T08:40:14.735Z,60.1
2018-04-17T08:41:04.544Z,60.1
2018-04-17T08:41:54.886Z,60.1
2018-04-17T08:42:45.387Z,60.1
2018-04-17T08:43:34.724Z,60.2
2018-04-17T08:44:25.073Z,60.2
2018-04-17T08:45:15.123Z,60.3
2018-04-17T08:46:05.221Z,60.4
2018-04-17T08:47:27.305Z,60.4
2018-04-17T08:47:44.845Z,60.5
2018-04-17T08:48:35.052Z,60.5
2018-04-17T08:49:24.146Z,60.5
2018-04-17T08:50:15.494Z,60.6
2018-04-17T08:51:05.288Z,60.6
2018-04-17T08:51:55.363Z,60.6
2018-04-17T08:52:44.873Z,60.6
2018-04-17T08:53:35.115Z,60.6
2018-04-17T08:54:25.772Z,60.6
2018-04-17T08:55:14.839Z,60.6
2018-04-17T08:56:04.847Z,60.7
2018-04-17T08:56:55.478Z,60.7
2018-04-17T08:57:45.738Z,60.7
2018-04-17T08:58:35.607Z,60.7
2018-04-17T08:59:41.229Z,60.7
2018-04-17T09:00:16.283Z,60.8
2018-04-17T09:01:56.124Z,60.8
2018-04-17T09:03:01.311Z,60.8
2018-04-17T09:03:41.217Z,60.8
2018-04-17T09:04:31.015Z,60.8
2018-04-17T09:05:21.698Z,60.8
2018-04-17T09:06:11.377Z,60.8
2018-04-17T09:07:01.172Z,60.8
2018-04-17T09:07:50.719Z,60.8
2018-04-17T09:08:41.384Z,60.8
2018-04-17T09:09:31.351Z,60.8
2018-04-17T09:10:21.234Z,60.8
2018-04-17T09:11:12.029Z,60.8
2018-04-17T09:12:01.531Z,60.8
2018-04-17T09:12:50.659Z,60.8
2018-04-17T09:13:41.255Z,60.9
2018-04-17T09:14:31.576Z,60.8
2018-04-17T09:15:35.933Z,60.8
2018-04-17T09:16:12.199Z,60.8
2018-04-17T09:17:01.116Z,60.8
2018-04-17T09:17:52.032Z,60.8
2018-04-17T09:18:42.119Z,60.8
2018-04-17T09:19:32.469Z,60.8
2018-04-17T09:20:22.042Z,60.8
2018-04-17T09:21:12.029Z,60.8
2018-04-17T09:22:02.365Z,60.9
2018-04-17T09:23:07.034Z,60.9
2018-04-17T09:23:42.764Z,60.9
2018-04-17T09:24:31.495Z,60.9
2018-04-17T09:26:13.164Z,60.9
2018-04-17T09:27:01.704Z,60.9
2018-04-17T09:27:52.241Z,60.9
2018-04-17T09:28:42.869Z,60.9
2018-04-17T09:29:32.942Z,60.9
2018-04-17T09:30:23.005Z,60.9
2018-04-17T09:31:13.023Z,60.9
2018-04-17T09:32:03.414Z,60.9
2018-04-17T09:32:53.508Z,60.9
2018-04-17T09:33:43.516Z,60.9
2018-04-17T09:34:33.396Z,60.9
2018-04-17T09:35:23.083Z,60.9
2018-04-17T09:36:13.660Z,60.9
2018-04-17T09:37:03.533Z,60.9
2018-04-17T09:37:53.801Z,60.9
2018-04-17T09:39:33.425Z,60.9
2018-04-17T09:40:24.093Z,60.9
2018-04-17T09:41:14.110Z,60.9
2018-04-17T09:42:03.585Z,60.9
2018-04-17T09:42:53.938Z,60.9
2018-04-17T09:43:44.018Z,60.9
2018-04-17T09:44:34.262Z,60.9
2018-04-17T09:45:24.611Z,60.9
2018-04-17T09:46:13.923Z,60.9
2018-04-17T09:47:04.752Z,60.9
2018-04-17T09:47:54.342Z,60.9
2018-04-17T09:48:44.377Z,60.9
2018-04-17T09:49:34.786Z,60.9
2018-04-17T09:50:39.379Z,60.9
2018-04-17T09:51:14.624Z,60.9
2018-04-17T09:52:03.327Z,60.9
2018-04-17T09:52:55.018Z,60.9
2018-04-17T09:53:44.239Z,60.9
2018-04-17T09:54:34.884Z,60.9
2018-04-17T09:55:24.639Z,60.9
2018-04-17T09:56:14.856Z,60.9
2018-04-17T09:57:05.742Z,60.9
2018-04-17T09:57:55.142Z,60.9
2018-04-17T09:59:00.192Z,60.9
2018-04-17T09:59:34.980Z,60.9
2018-04-17T10:00:39.966Z,60.9
2018-04-17T10:01:14.707Z,60.9
2018-04-17T10:02:05.625Z,60.9
2018-04-17T10:02:55.017Z,60.9
2018-04-17T10:03:45.823Z,60.9
2018-04-17T10:04:35.888Z,60.9
2018-04-17T10:05:25.703Z,60.9
2018-04-17T10:06:15.546Z,60.9
2018-04-17T10:07:05.505Z,60.9
2018-04-17T10:07:56.179Z,60.9
2018-04-17T10:08:46.112Z,60.9
2018-04-17T10:09:36.237Z,60.9
2018-04-17T10:10:25.750Z,61
2018-04-17T10:11:16.257Z,61
2018-04-17T10:12:06.543Z,61
2018-04-17T10:12:56.284Z,61.1
2018-04-17T10:13:46.326Z,61.1
2018-04-17T10:14:36.143Z,61.1
2018-04-17T10:15:26.481Z,61.1
2018-04-17T10:16:16.532Z,61.1
2018-04-17T10:17:06.038Z,61.1
2018-04-17T10:17:56.396Z,61.2
2018-04-17T10:18:46.440Z,61.2
2018-04-17T10:19:36.670Z,61.2
2018-04-17T10:20:26.692Z,61.2
2018-04-17T10:21:17.215Z,61.3
2018-04-17T10:22:06.955Z,61.3
2018-04-17T10:22:56.551Z,61.3
2018-04-17T10:23:46.831Z,61.3
2018-04-17T10:24:37.185Z,61.4
2018-04-17T10:25:27.239Z,61.4
2018-04-17T10:26:17.514Z,61.4
2018-04-17T10:27:07.644Z,61.4
2018-04-17T10:27:57.416Z,61.4
2018-04-17T10:29:02.356Z,61.4
2018-04-17T10:29:37.319Z,61.5
2018-04-17T10:30:27.407Z,61.5
2018-04-17T10:31:17.372Z,61.5
2018-04-17T10:32:07.189Z,61.5
2018-04-17T10:32:58.009Z,61.5
2018-04-17T10:34:25.386Z,61.6
2018-04-17T10:35:15.434Z,61.6
2018-04-17T10:36:05.804Z,61.6
2018-04-17T10:36:55.291Z,61.6
2018-04-17T10:37:45.626Z,61.6
2018-04-17T10:38:35.994Z,61.6
2018-04-17T10:39:25.298Z,61.6
2018-04-17T10:40:16.084Z,61.6
2018-04-17T10:41:05.644Z,61.6
2018-04-17T10:41:56.279Z,61.6
2018-04-17T10:42:46.094Z,61.6
2018-04-17T10:43:36.074Z,61.6
2018-04-17T10:44:26.146Z,61.6
2018-04-17T10:45:15.451Z,61.6
2018-04-17T10:46:06.068Z,61.6
2018-04-17T10:46:56.636Z,61.6
2018-04-17T10:47:45.889Z,61.6
2018-04-17T10:48:35.576Z,61.6
2018-04-17T10:49:25.769Z,61.6
2018-04-17T10:50:16.338Z,61.6
2018-04-17T10:51:06.388Z,61.6
2018-04-17T10:51:56.689Z,61.6
2018-04-17T10:52:46.495Z,61.6
2018-04-17T10:53:37.148Z,61.6
2018-04-17T10:54:26.918Z,61.6
2018-04-17T10:55:17.221Z,61.6
2018-04-17T10:56:06.752Z,61.6
2018-04-17T10:56:57.097Z,61.6
2018-04-17T10:57:46.940Z,61.6
2018-04-17T10:58:37.529Z,61.6
2018-04-17T10:59:26.175Z,61.6
2018-04-17T11:00:17.403Z,61.6
2018-04-17T11:01:07.460Z,61.6
2018-04-17T11:01:57.466Z,61.7
2018-04-17T11:02:47.260Z,61.7
2018-04-17T11:03:37.617Z,61.7
2018-04-17T11:04:27.980Z,61.7
2018-04-17T11:05:18.053Z,61.8
2018-04-17T11:06:07.811Z,61.8
2018-04-17T11:06:57.837Z,61.8
2018-04-17T11:07:48.200Z,61.8
2018-04-17T11:08:37.720Z,61.8
2018-04-17T11:09:28.107Z,61.8
2018-04-17T11:10:18.436Z,61.8
2018-04-17T11:11:08.175Z,61.9
2018-04-17T11:11:58.285Z,61.9
2018-04-17T11:12:48.600Z,61.9
2018-04-17T11:13:37.815Z,61.9
2018-04-17T11:14:28.530Z,61.9
2018-04-17T11:15:18.528Z,61.9
2018-04-17T11:16:08.881Z,62
2018-04-17T11:16:58.969Z,62
2018-04-17T11:17:48.699Z,62.1
2018-04-17T11:18:38.776Z,62.1
2018-04-17T11:19:28.907Z,62.1
2018-04-17T11:20:18.619Z,62.1
2018-04-17T11:21:08.397Z,62.1
2018-04-17T11:21:59.324Z,62.2
2018-04-17T11:22:49.370Z,62.2
2018-04-17T11:23:38.846Z,62.2
2018-04-17T11:24:29.064Z,62.2
2018-04-17T11:25:18.439Z,62.3
2018-04-17T11:26:09.669Z,62.3
2018-04-17T11:26:58.857Z,62.3